Rejestracja

Wszystkie dane podawane są w czasie UTC za wyjątkiem miejsc gdzie jest jednoznacznie podane, że jest inaczej. Dane podawane w serwisie mają charakter informacyjny!!!
Informacje w sprawie dostępu do serwisu pod numerem tel. +48 261-828-138

Aktualna Pogoda
 
Pogoda w Polsce
14°C Szczecin 13°C Suwałki 14°C Warszawa 15°C Poznan
15°C Opole 15°C Kraków 13°C Rzeszów
Więcej miast w Polsce

Pogoda w Europie
14°C Berlin 10°C Paryz 10°C Bruksela 9°C Oslo
14°C Praga 19°C Zagrzeb
Więcej miast w Europie

Metary wojskowe test
METAR EPBC 070700Z 23004KT 1200 BR BKN003 13/13 Q1014=
METAR EPCE 070730Z 25012KT CAVOK 14/06 Q1012 RMK 139 057 0/0=
METAR EPDA 070730Z 23009KT 160V270 CAVOK 14/08 Q1013 RMK 139 069 0/0=
METAR EPDE 070730Z 28006KT 9999 SCT025 SCT100 15/12 Q1014 RMK 150 081 4/3=
METAR EPIR 070730Z 30014KT CAVOK 16/07 Q1014 RMK 156 056 2/2=
METAR EPKS 070730Z 25008KT CAVOK 16/06 Q1016 RMK 156 052 0/0=
METAR EPLK 070730Z 31006KT 9999 SCT090 15/10 Q1016 RMK 146 071 3/3=
METAR EPLY 070730Z 29006KT CAVOK 16/11 Q1016 RMK 162 073 3/1=
METAR EPMB 070730Z 26012KT CAVOK 17/08 Q1013 RMK 165 058 0/0=
METAR EPMI 070730Z 23011KT CAVOK 14/04 Q1014 RMK 135 054 2/2=
METAR EPMM 070730Z 25006KT 9999 FEW020 FEW200 16/10 Q1014 RMK 160 069 2/1=
METAR EPNA 070730Z 25009KT CAVOK 15/05 Q1014 RMK 146 051 0/0=
METAR EPOK 070730Z 27015KT CAVOK 16/06 Q1012 RMK 157 053 0/0=
METAR EPPR 070730Z 28010KT CAVOK 17/07 Q1012 RMK 166 053 0/0=
METAR EPPW 070730Z 27010KT CAVOK 15/04 Q1015 RMK 152 048 1/1=
METAR EPSN 070730Z 24012KT 9999 FEW027 13/07 Q1013 RMK 129 065 2/2=
METAR EPTM 070730Z 26004KT 2500 BR BKN004 14/13 Q1015 RMK 138 092 6/6=


 
Informacje ogólne
Pogoda
Warszawa
Temperatura: 13.5°C
Wiatr: 1.0 m/s
Ciśnienie: 1014.8 hPa
Zjawiska: Brak
Temp. max: 13.5 °C
Temp. min: 8.2 °C


Dane astronomiczne
Warszawa:
Dzien: 15:15 h
Noc: 08:45 h


Using HW VSP powered by HW group.

Prawa autorskie©2007 SSH SZ RP. Wszelkie prawa zastrzeżone.